フェアバンクス の空港の天気 - METARとTAF

フェアバンクス国際空港 ( PAFA / FAI ) - アメリカ アラスカ州フェアバンクス
飛行場実況気象(Metar)
観測時間10/19 09:53 AKDT (10/19 17:53 UTC)
風向・風速北東 4m/s
視程10km以上
天気現象
全天の4割程度の雲 雲底高度 2440m
全天を覆う雲 雲底高度 6100m
気温-1.1℃
湿度88%
気圧995.3hPa
METARPAFA 191753Z 04007KT 10SM SCT080 OVC200 M01/M03 A2937 RMK AO2 SLP953 T10111028 10011 21033 58054
過去の天気等 Google飛行場航空写真 Wunderground天気予報

過去48時間のMETAR

飛行場予報(TAF)
発表時間: 10/19 09:38 AKDT (10/19 17:38 UTC)
予報対象時間: 19日10時 AKDT ~ 20日16時 AKDT
風向・風速北東 4m/s
視程10km以上
天気現象周辺でしゅう雨
全天の4割程度の雲 雲底高度 1070m
全天の4割程度の雲 雲底高度 1520m
全天を覆う雲 雲底高度 3050m
19日12時 AKDT から
風向・風速北東 5m/s 瞬間風速 8m/s
視程10km以上
天気現象弱い氷雨雪
全天の4割程度の雲 雲底高度 760m
全天の8割程度の雲 雲底高度 1070m
全天を覆う雲 雲底高度 1520m
19日19時 AKDT から
風向・風速北北東 5m/s 瞬間風速 8m/s
視程10km以上
天気現象弱い雨雪 もや
全天の4割程度の雲 雲底高度 460m
全天の8割程度の雲 雲底高度 760m
全天を覆う雲 雲底高度 1070m
20日1時 AKDT から
風向・風速北 2m/s
視程3220m
天気現象弱い雪 もや
全天の8割程度の雲 雲底高度 460m
全天を覆う雲 雲底高度 760m
PAFA 191738Z 1918/2024 04008KT P6SM VCSH SCT035 SCT050 OVC100 WS015/09025KT
FM192000 04010G15KT P6SM -FZRASN SCT025 BKN035 OVC050 WS015/09035KT
FM200300 03010G15KT 6SM -RASN BR SCT015 BKN025 OVC035
FM200900 36004KT 2SM -SN BR BKN015 OVC025